Terminal Aerodrome Forecast
Issued by NWS

Home | Current Version | Previous Version | Text Only | Print | Product List | Glossary On
Versions: 1 2 3 4 5 6 7 8 9 10 11 12 13 14 15
000
FTUS44 KEPZ 300528
TAFTCS
TAF
KTCS 300528Z 3006/3106 29006KT P6SM FEW100 SCT250
     FM301800 16007KT P6SM SCT080 SCT250
     FM310100 25007KT P6SM FEW080 SCT250
     FM310300 29006KT P6SM FEW080 SCT250=

USA.gov is the U.S. government's official web portal to all federal, state and local government web resources and services.